Main page
METAR-TAF:

METAR-TAF

Airports :

Avignon – Provence Airport

Avignon, France

latitude: 43-54-26N, longitude: 004-54-07E, elevation: 38 m

Current weather observation

The report was made 35 minutes ago, at 09:30 UTC
Wind 13 kt from the North
Temperature 23°C
Humidity 44%
Pressure 1019 hPa
Visibility 10 km or more
Scattered clouds at a height of 5800 ft
Broken clouds at a height of 7400 ft
Broken clouds at a height of 9200 ft

METAR: LFMV 230930Z AUTO 35013KT 9999 SCT058 BKN074 BKN092 23/10 Q1019 TEMPO 36015G25KT

Time: 12:05 (10:05 UTC)

Forecast

The report was made 2 hours and 5 minutes ago, at 08:00 UTC
Forecast valid from 23 at 09 UTC to 24 at 09 UTC
Wind 15 kt from the North with gusts up to 25 kt
Visibility 10 km or more
no clouds below 1500 m and no cumulonimbus
Temporary
from 23 at 11 UTC to 23 at 17 UTC
Wind 10 kt from the Northwest
Becoming
from 24 at 06 UTC to 24 at 09 UTC
Wind 10 kt from the North

TAF: LFMV 230800Z 2309/2409 36015G25KT CAVOK TEMPO 2311/2317 32010KT BECMG 2406/2409 36010KT

Weather observations and forecasts of more than 4000 airports (METAR and TAF reports).

The available stations are represented by yellow and red dots on the map.

Hover mouse over dot to see the name of the station.

Then click to see weather observations and forecasts.

To change the map : click on the green buttons with a black cross to zoom in, on the green button with a dash to zoom out, or on the green arrows for adjacent maps.


METAR-TAF: